createdAt,value
2023-06-15T00:01:31.732Z,8.65
2023-06-15T00:06:24.335Z,7.82
2023-06-15T00:11:18.214Z,8.23
2023-06-15T00:16:14.663Z,7.50
2023-06-15T00:21:09.905Z,7.40
2023-06-15T00:26:03.566Z,8.18
2023-06-15T00:30:57.738Z,9.27
2023-06-15T00:35:53.043Z,8.73
2023-06-15T00:40:47.572Z,8.27
2023-06-15T00:45:42.731Z,8.20
2023-06-15T00:50:39.207Z,8.73
2023-06-15T00:55:36.342Z,12.88
2023-06-15T01:00:31.349Z,13.55
2023-06-15T01:05:26.179Z,16.67
2023-06-15T01:10:22.335Z,19.83
2023-06-15T01:15:15.866Z,21.85
2023-06-15T01:20:11.205Z,22.23
2023-06-15T01:25:31.497Z,20.70
2023-06-15T01:30:25.446Z,18.13
2023-06-15T01:35:19.991Z,14.18
2023-06-15T01:40:14.887Z,13.50
2023-06-15T01:45:10.693Z,15.52
2023-06-15T01:50:04.686Z,16.35
2023-06-15T01:54:57.505Z,16.67
2023-06-15T01:59:52.843Z,16.30
2023-06-15T02:04:46.524Z,15.73
2023-06-15T02:09:40.140Z,14.57
2023-06-15T02:14:35.031Z,13.75
2023-06-15T02:19:30.224Z,14.77
2023-06-15T02:24:23.608Z,15.75
2023-06-15T02:29:16.775Z,14.25
2023-06-15T02:34:10.455Z,13.18
2023-06-15T02:39:04.221Z,14.50
2023-06-15T02:43:58.077Z,14.27
2023-06-15T02:48:54.164Z,13.95
2023-06-15T02:53:49.512Z,15.45
2023-06-15T02:58:43.897Z,15.15
2023-06-15T03:03:45.761Z,16.23
2023-06-15T03:08:39.813Z,16.95
2023-06-15T03:13:41.606Z,16.10
2023-06-15T03:18:36.064Z,16.65
2023-06-15T03:23:30.072Z,16.15
2023-06-15T03:28:29.422Z,15.98
2023-06-15T03:33:22.916Z,15.68
2023-06-15T03:38:18.532Z,15.60
2023-06-15T03:43:13.701Z,13.63
2023-06-15T03:48:08.804Z,15.88
2023-06-15T03:53:04.896Z,15.70
2023-06-15T03:57:58.233Z,14.38
2023-06-15T04:02:52.073Z,15.05
2023-06-15T04:07:46.419Z,13.70
2023-06-15T04:12:38.989Z,11.85
2023-06-15T04:17:32.372Z,9.82
2023-06-15T04:22:27.550Z,10.98
2023-06-15T04:27:21.394Z,11.55
2023-06-15T04:32:16.035Z,11.07
2023-06-15T04:37:10.404Z,11.43
2023-06-15T04:42:04.008Z,11.70
2023-06-15T04:46:59.057Z,12.05
2023-06-15T04:51:52.877Z,13.13
2023-06-15T04:56:46.949Z,14.95
2023-06-15T05:01:39.445Z,14.77
2023-06-15T05:06:39.484Z,11.65
2023-06-15T05:11:33.776Z,11.60
2023-06-15T05:16:27.802Z,13.75
2023-06-15T05:21:21.588Z,10.57
2023-06-15T05:31:35.014Z,15.85
2023-06-15T05:36:54.438Z,16.75
2023-06-15T05:41:47.296Z,18.38
2023-06-15T05:46:41.413Z,18.23
2023-06-15T05:51:35.026Z,13.65
2023-06-15T05:56:28.265Z,14.27
2023-06-15T06:01:22.197Z,14.45
2023-06-15T06:06:16.775Z,13.27
2023-06-15T06:11:11.853Z,11.80
2023-06-15T06:16:11.880Z,16.88
2023-06-15T06:21:05.826Z,13.98
2023-06-15T06:25:59.218Z,11.93
2023-06-15T06:30:57.113Z,17.85
2023-06-15T06:35:50.979Z,15.83
2023-06-15T06:40:44.578Z,16.48
2023-06-15T06:45:38.105Z,21.70
2023-06-15T06:50:31.743Z,17.92
2023-06-15T06:55:25.057Z,16.10
2023-06-15T07:00:20.596Z,15.90
2023-06-15T07:05:14.439Z,13.27
2023-06-15T07:10:07.773Z,10.00
2023-06-15T07:15:00.192Z,11.48
2023-06-15T07:19:53.764Z,10.60
2023-06-15T07:24:48.844Z,8.88
2023-06-15T07:29:43.426Z,5.20
2023-06-15T07:34:37.604Z,5.22
2023-06-15T07:39:33.774Z,5.65
2023-06-15T07:44:28.700Z,9.68
2023-06-15T07:49:32.759Z,9.55
2023-06-15T07:54:34.092Z,9.57
2023-06-15T07:59:27.652Z,6.60
2023-06-15T08:04:21.896Z,7.25
2023-06-15T08:09:15.930Z,6.57
2023-06-15T08:14:09.796Z,5.30
2023-06-15T08:19:02.144Z,5.57
2023-06-15T08:23:55.855Z,4.80
2023-06-15T08:28:53.896Z,4.65
2023-06-15T08:33:47.799Z,3.70
2023-06-15T08:38:42.673Z,4.18
2023-06-15T08:43:36.303Z,4.40
2023-06-15T08:48:29.470Z,4.15
2023-06-15T08:53:25.339Z,4.05
2023-06-15T08:58:19.000Z,4.00
2023-06-15T09:03:12.162Z,4.30
2023-06-15T09:08:06.543Z,3.55
2023-06-15T09:13:00.322Z,3.50
2023-06-15T09:18:00.996Z,3.47
2023-06-15T09:22:59.392Z,3.88
2023-06-15T09:27:56.211Z,3.30
2023-06-15T09:32:49.077Z,5.05
2023-06-15T09:37:42.843Z,3.53
2023-06-15T09:42:37.502Z,3.42
2023-06-15T09:47:32.112Z,3.13
2023-06-15T09:52:25.946Z,2.42
2023-06-15T09:57:21.153Z,2.53
2023-06-15T10:02:15.283Z,2.75
2023-06-15T10:07:15.620Z,2.17
2023-06-15T10:12:15.574Z,2.15
2023-06-15T10:17:11.125Z,2.70
2023-06-15T10:22:09.949Z,2.83
2023-06-15T10:27:03.985Z,2.30
2023-06-15T10:32:20.276Z,2.00
2023-06-15T10:37:19.870Z,2.15
2023-06-15T10:42:15.998Z,1.70
2023-06-15T10:47:13.676Z,2.22
2023-06-15T10:52:07.894Z,1.80
2023-06-15T10:57:02.110Z,2.05
2023-06-15T11:01:55.484Z,1.63
2023-06-15T11:06:59.923Z,1.70
2023-06-15T11:11:55.116Z,1.73
2023-06-15T11:17:02.733Z,1.90
2023-06-15T11:22:05.923Z,2.28
2023-06-15T11:27:04.108Z,1.98
2023-06-15T11:31:58.367Z,1.38
2023-06-15T11:36:52.269Z,1.67
2023-06-15T11:41:50.013Z,2.03
2023-06-15T11:46:43.434Z,1.77
2023-06-15T11:51:38.793Z,1.90
2023-06-15T11:56:32.819Z,1.63
2023-06-15T12:01:30.597Z,1.75
2023-06-15T12:06:26.517Z,2.33
2023-06-15T12:11:27.880Z,2.50
2023-06-15T12:16:21.531Z,1.70
2023-06-15T12:21:22.687Z,1.70
2023-06-15T12:26:18.097Z,1.75
2023-06-15T12:31:12.938Z,1.95
2023-06-15T12:36:13.277Z,2.40
2023-06-15T12:41:14.225Z,1.75
2023-06-15T12:46:08.052Z,2.22
2023-06-15T12:51:02.547Z,1.88
2023-06-15T12:55:55.995Z,1.88
2023-06-15T13:00:50.156Z,1.45
2023-06-15T13:05:44.081Z,1.83
2023-06-15T13:10:37.753Z,1.52
2023-06-15T13:15:30.764Z,1.85
2023-06-15T13:20:25.056Z,2.13
2023-06-15T13:25:19.993Z,2.10
2023-06-15T13:30:14.928Z,2.00
2023-06-15T13:35:10.556Z,2.72
2023-06-15T13:40:10.592Z,1.75
2023-06-15T13:45:11.206Z,2.03
2023-06-15T13:50:07.314Z,1.98
2023-06-15T13:59:53.025Z,2.13
2023-06-15T14:04:49.878Z,2.25
2023-06-15T14:09:44.597Z,2.30
2023-06-15T14:14:38.291Z,2.90
2023-06-15T14:19:31.252Z,2.80
2023-06-15T14:24:26.071Z,2.60
2023-06-15T14:29:20.976Z,3.17
2023-06-15T14:34:18.745Z,2.95
2023-06-15T14:39:12.626Z,2.42
2023-06-15T14:44:08.338Z,2.47
2023-06-15T14:49:22.392Z,2.80
2023-06-15T14:54:16.334Z,3.22
2023-06-15T14:59:09.826Z,3.20
2023-06-15T15:04:07.499Z,2.92
2023-06-15T15:09:01.600Z,3.30
2023-06-15T15:13:57.154Z,3.20
2023-06-15T15:18:52.207Z,4.20
2023-06-15T15:23:47.251Z,3.05
2023-06-15T15:28:41.104Z,2.92
2023-06-15T15:33:36.435Z,3.10
2023-06-15T15:38:29.730Z,2.75
2023-06-15T15:43:22.516Z,3.65
2023-06-15T15:48:15.525Z,3.72
2023-06-15T15:53:10.867Z,3.65
2023-06-15T15:58:06.157Z,3.95
2023-06-15T16:03:00.284Z,3.63
2023-06-15T16:07:56.887Z,3.67
2023-06-15T16:12:50.446Z,3.65
2023-06-15T16:17:44.564Z,3.00
2023-06-15T16:22:38.869Z,3.97
2023-06-15T16:27:32.431Z,3.60
2023-06-15T16:32:27.218Z,4.03
2023-06-15T16:37:20.834Z,3.67
2023-06-15T16:42:15.776Z,4.40
2023-06-15T16:47:10.227Z,3.78
2023-06-15T16:52:03.900Z,4.07
2023-06-15T16:56:56.746Z,3.58
2023-06-15T17:01:50.500Z,3.95
2023-06-15T17:06:43.910Z,4.20
2023-06-15T17:11:37.830Z,3.53
2023-06-15T17:16:31.646Z,3.25
2023-06-15T17:21:25.225Z,3.47
2023-06-15T17:26:19.114Z,3.65
2023-06-15T17:31:13.996Z,3.38
2023-06-15T17:36:08.541Z,3.58
2023-06-15T17:41:01.272Z,3.20
2023-06-15T17:45:54.649Z,4.22
2023-06-15T17:50:48.693Z,3.92
2023-06-15T17:55:41.841Z,4.20
2023-06-15T18:00:35.165Z,3.88
2023-06-15T18:05:29.447Z,3.35
2023-06-15T18:10:25.108Z,3.20
2023-06-15T18:15:19.394Z,3.50
2023-06-15T18:20:13.512Z,2.90
2023-06-15T18:25:08.019Z,3.78
2023-06-15T18:30:09.334Z,3.65
2023-06-15T18:35:04.034Z,4.13
2023-06-15T18:39:57.037Z,3.45
2023-06-15T18:44:50.510Z,3.60
2023-06-15T18:50:05.776Z,4.40
2023-06-15T18:54:59.859Z,3.33
2023-06-15T18:59:53.417Z,4.60
2023-06-15T19:04:48.137Z,3.13
2023-06-15T19:09:41.908Z,3.13
2023-06-15T19:14:38.161Z,3.05
2023-06-15T19:19:31.867Z,3.70
2023-06-15T19:24:25.135Z,4.70
2023-06-15T19:29:18.676Z,4.72
2023-06-15T19:34:12.691Z,4.57
2023-06-15T19:39:06.113Z,4.28
2023-06-15T19:43:59.102Z,3.90
2023-06-15T19:48:54.294Z,4.60
2023-06-15T19:53:47.667Z,4.03
2023-06-15T19:58:42.340Z,4.35
2023-06-15T20:03:37.494Z,4.40
2023-06-15T20:08:34.869Z,4.82
2023-06-15T20:13:28.430Z,4.37
2023-06-15T20:18:21.924Z,4.78
2023-06-15T20:23:16.375Z,4.28
2023-06-15T20:28:10.649Z,4.68
2023-06-15T20:33:04.062Z,5.32
2023-06-15T20:37:58.421Z,6.68
2023-06-15T20:42:52.692Z,5.35
2023-06-15T20:47:46.700Z,4.80
2023-06-15T20:52:42.596Z,5.05
2023-06-15T20:57:38.659Z,5.55
2023-06-15T21:02:32.408Z,4.30
2023-06-15T21:07:27.866Z,4.82
2023-06-15T21:12:21.712Z,4.43
2023-06-15T21:17:15.845Z,5.28
2023-06-15T21:22:09.903Z,5.45
2023-06-15T21:27:02.417Z,5.80
2023-06-15T21:31:55.111Z,5.10
2023-06-15T21:36:48.981Z,5.50
2023-06-15T21:41:42.240Z,4.78
2023-06-15T21:46:36.562Z,5.32
2023-06-15T21:51:29.897Z,5.22
2023-06-15T21:56:23.629Z,5.18
2023-06-15T22:01:17.383Z,5.60
2023-06-15T22:06:10.904Z,4.88
2023-06-15T22:11:04.061Z,4.80
2023-06-15T22:15:58.416Z,4.72
2023-06-15T22:20:54.012Z,4.95
2023-06-15T22:25:55.758Z,5.28
2023-06-15T22:30:53.333Z,5.15
2023-06-15T22:35:47.599Z,4.90
2023-06-15T22:40:41.114Z,4.70
2023-06-15T22:45:36.035Z,5.75
2023-06-15T22:50:29.377Z,5.47
2023-06-15T22:55:25.331Z,5.75
2023-06-15T23:00:20.620Z,5.32
2023-06-15T23:05:19.212Z,5.38
2023-06-15T23:10:14.027Z,5.30
2023-06-15T23:15:07.622Z,5.78
2023-06-15T23:20:04.811Z,5.90
2023-06-15T23:24:59.946Z,5.78
2023-06-15T23:29:52.916Z,5.18
2023-06-15T23:34:46.025Z,5.50
2023-06-15T23:39:39.078Z,5.25
2023-06-15T23:44:33.164Z,5.60
2023-06-15T23:49:27.705Z,5.85
2023-06-15T23:54:21.508Z,6.13
2023-06-15T23:59:14.698Z,6.32
